Time;durP1;ratioP1;P1;durP2;ratioP2;P2;SDS_P1;SDS_P2;PMS_P1;PMS_P2;Temp;Humidity;BMP_temperature;BMP_pressure;BME280_temperature;BME280_humidity;BME280_pressure;Samples;Min_cycle;Max_cycle;Signal;HPM_P1;HPM_P2
2023/12/28 00:01:53;;;;;;;48.30;24.00;;;;;;;1.31;77.01;100489.73;135796;1248;108710;-80
2023/12/28 00:04:59;;;;;;;42.10;20.60;;;;;;;1.38;77.08;100476.77;135852;1248;108686;-80
2023/12/28 00:08:04;;;;;;;33.20;16.60;;;;;;;1.47;77.08;100463.10;135806;1248;107610;-80
2023/12/28 00:11:10;;;;;;;36.40;18.90;;;;;;;1.57;77.25;100456.70;135786;1249;108758;-79
2023/12/28 00:14:16;;;;;;;36.50;18.70;;;;;;;1.65;76.90;100455.33;135547;1251;107353;-80
2023/12/28 00:17:21;;;;;;;34.60;16.90;;;;;;;1.71;77.13;100455.88;135482;1251;106743;-80
2023/12/28 00:20:29;;;;;;;32.30;16.20;;;;;;;1.75;76.98;100451.63;135415;1251;107704;-80
2023/12/28 00:23:34;;;;;;;32.60;16.20;;;;;;;1.79;77.26;100456.48;135447;1251;108477;-80
2023/12/28 00:26:40;;;;;;;33.40;17.60;;;;;;;1.78;76.93;100450.55;135416;1251;106402;-79
2023/12/28 00:29:45;;;;;;;28.30;15.60;;;;;;;1.74;76.87;100448.12;135454;1251;108745;-79
2023/12/28 00:32:51;;;;;;;28.50;14.80;;;;;;;1.73;77.22;100436.14;135409;1251;108463;-79
2023/12/28 00:35:57;;;;;;;28.20;15.10;;;;;;;1.71;77.29;100425.70;135353;1250;107452;-79
2023/12/28 00:39:03;;;;;;;29.30;15.10;;;;;;;1.71;77.41;100426.93;135393;1250;108929;-79
2023/12/28 00:42:08;;;;;;;32.70;14.70;;;;;;;1.69;77.43;100428.64;135557;1249;108410;-79
2023/12/28 00:45:14;;;;;;;32.50;16.50;;;;;;;1.66;77.59;100426.04;135572;1249;106416;-79
2023/12/28 00:48:20;;;;;;;30.50;15.70;;;;;;;1.64;77.40;100413.36;135375;1249;108425;-79
2023/12/28 00:51:25;;;;;;;34.40;15.40;;;;;;;1.62;77.52;100396.97;135587;1250;107699;-79
2023/12/28 00:54:31;;;;;;;31.50;14.70;;;;;;;1.64;77.68;100386.16;135493;1250;108484;-79
2023/12/28 00:57:37;;;;;;;29.90;15.40;;;;;;;1.65;77.47;100378.57;135675;1250;107390;-80
2023/12/28 01:00:42;;;;;;;28.80;15.60;;;;;;;1.69;77.55;100374.23;135634;1251;108714;-79
2023/12/28 01:03:48;;;;;;;28.10;14.80;;;;;;;1.71;77.41;100382.20;135683;1250;108420;-79
2023/12/28 01:06:53;;;;;;;35.40;16.10;;;;;;;1.71;77.39;100382.20;135623;1250;106388;-79
2023/12/28 01:09:59;;;;;;;29.50;14.60;;;;;;;1.72;77.41;100375.69;135705;1248;109231;-78
2023/12/28 01:13:05;;;;;;;29.70;14.90;;;;;;;1.69;77.46;100370.27;135822;1250;106636;-79
2023/12/28 01:16:12;;;;;;;27.50;14.20;;;;;;;1.66;77.59;100366.92;135579;1250;107573;-79
2023/12/28 01:19:19;;;;;;;29.60;14.20;;;;;;;1.64;77.38;100368.83;135543;1250;107912;-78
2023/12/28 01:22:25;;;;;;;27.30;14.00;;;;;;;1.59;77.43;100364.89;135554;1251;106880;-78
2023/12/28 01:25:30;;;;;;;29.20;14.40;;;;;;;1.53;77.42;100355.73;135468;1250;106360;-78
2023/12/28 01:28:36;;;;;;;29.00;13.70;;;;;;;1.50;77.72;100357.72;135547;1250;107623;-79
2023/12/28 01:31:42;;;;;;;36.40;14.90;;;;;;;1.47;77.54;100362.11;135780;1248;107479;-79
2023/12/28 01:34:48;;;;;;;31.00;13.60;;;;;;;1.45;77.73;100349.08;135762;1248;108445;-79
2023/12/28 01:37:53;;;;;;;26.60;12.00;;;;;;;1.47;77.65;100345.45;135564;1248;108802;-79
2023/12/28 01:41:01;;;;;;;29.20;14.00;;;;;;;1.51;77.64;100341.86;135891;1248;106392;-78
2023/12/28 01:44:07;;;;;;;27.90;14.00;;;;;;;1.54;77.71;100336.76;135687;1253;108273;-78
2023/12/28 01:47:12;;;;;;;27.00;13.30;;;;;;;1.51;77.42;100336.60;135584;1251;106679;-79
2023/12/28 01:50:19;;;;;;;26.00;12.70;;;;;;;1.46;77.59;100332.55;135522;1250;107285;-79
2023/12/28 01:53:25;;;;;;;24.50;13.30;;;;;;;1.45;77.85;100323.27;135541;1250;107415;-79
2023/12/28 01:56:31;;;;;;;28.70;14.00;;;;;;;1.43;77.63;100316.23;135759;1252;107529;-79
2023/12/28 01:59:36;;;;;;;28.30;12.90;;;;;;;1.38;77.67;100310.58;135499;1249;108471;-79
2023/12/28 02:02:42;;;;;;;26.70;13.00;;;;;;;1.35;77.75;100311.99;135704;1249;106312;-79
2023/12/28 02:05:48;;;;;;;25.00;12.70;;;;;;;1.31;77.71;100310.66;135497;1251;106923;-78
2023/12/28 02:08:54;;;;;;;26.50;12.40;;;;;;;1.30;77.89;100296.02;135659;1250;108652;-79
2023/12/28 02:11:59;;;;;;;25.40;11.50;;;;;;;1.26;77.95;100284.16;135644;1251;108534;-80
2023/12/28 02:15:06;;;;;;;28.20;11.90;;;;;;;1.21;78.16;100277.96;135475;1250;107693;-79
2023/12/28 02:18:18;;;;;;;25.50;11.20;;;;;;;1.19;78.09;100270.20;135415;1250;106170;-79
2023/12/28 02:21:25;;;;;;;23.90;11.10;;;;;;;1.21;78.19;100265.00;135697;1250;106401;-79
2023/12/28 02:24:31;;;;;;;23.70;9.60;;;;;;;1.27;78.05;100251.81;135632;1251;107686;-80
2023/12/28 02:27:39;;;;;;;23.90;10.20;;;;;;;1.35;78.18;100245.36;135634;1251;107215;-79
2023/12/28 02:30:45;;;;;;;24.30;10.70;;;;;;;1.44;77.94;100244.63;135683;1251;106235;-79
2023/12/28 02:33:58;;;;;;;21.30;10.70;;;;;;;1.51;78.11;100244.77;135636;1252;108688;-79
2023/12/28 02:37:05;;;;;;;23.20;10.60;;;;;;;1.54;78.04;100249.48;135456;1250;106261;-80
2023/12/28 02:40:15;;;;;;;404.50;191.10;;;;;;;1.54;77.97;100242.98;135691;1251;107805;-79
2023/12/28 02:43:20;;;;;;;168.40;72.60;;;;;;;1.54;78.13;100233.17;135503;1250;106740;-80
2023/12/28 02:46:26;;;;;;;95.50;46.90;;;;;;;1.54;78.18;100229.66;135685;1250;107579;-80
2023/12/28 02:49:32;;;;;;;56.30;27.80;;;;;;;1.53;78.05;100229.89;135633;1251;106436;-79
2023/12/28 02:52:37;;;;;;;46.80;25.00;;;;;;;1.52;78.17;100225.40;135720;1249;107046;-79
2023/12/28 02:55:43;;;;;;;62.80;32.60;;;;;;;1.49;78.02;100225.21;135594;1250;108437;-79
2023/12/28 02:58:49;;;;;;;73.10;34.40;;;;;;;1.47;78.13;100215.76;135749;1251;108441;-80
2023/12/28 03:01:54;;;;;;;87.70;42.10;;;;;;;1.43;78.39;100208.77;135640;1251;107390;-80
2023/12/28 03:05:00;;;;;;;40.90;20.70;;;;;;;1.42;78.34;100203.23;135668;1249;105567;-80
2023/12/28 03:08:06;;;;;;;28.30;13.50;;;;;;;1.42;78.64;100197.98;135641;1250;107601;-81
2023/12/28 03:11:13;;;;;;;21.80;11.40;;;;;;;1.48;78.50;100188.86;135516;1249;107699;-79
2023/12/28 03:14:21;;;;;;;25.70;11.40;;;;;;;1.54;78.43;100190.72;135691;1249;108476;-79
2023/12/28 03:17:26;;;;;;;24.30;12.30;;;;;;;1.58;78.65;100194.34;135666;1249;107677;-79
2023/12/28 03:20:32;;;;;;;21.80;11.50;;;;;;;1.63;78.50;100191.77;135681;1250;106122;-80
2023/12/28 03:23:37;;;;;;;29.10;16.70;;;;;;;1.65;78.44;100185.00;135662;1250;107505;-80
2023/12/28 03:26:44;;;;;;;31.60;17.60;;;;;;;1.67;78.38;100180.84;135478;1251;108518;-79
2023/12/28 03:29:49;;;;;;;31.40;18.10;;;;;;;1.66;78.37;100179.69;135677;1249;107994;-79
2023/12/28 03:32:55;;;;;;;35.40;19.90;;;;;;;1.65;78.43;100178.84;135503;1250;106929;-79
2023/12/28 03:36:00;;;;;;;23.50;12.20;;;;;;;1.63;78.45;100177.73;135641;1249;107888;-79
2023/12/28 03:39:06;;;;;;;20.50;11.10;;;;;;;1.59;78.61;100164.81;135480;1250;108654;-80
2023/12/28 03:42:11;;;;;;;22.60;11.40;;;;;;;1.55;78.58;100161.75;135683;1251;108627;-79
2023/12/28 03:45:17;;;;;;;21.10;11.00;;;;;;;1.52;78.59;100150.73;135635;1249;106245;-79
2023/12/28 03:48:23;;;;;;;25.90;11.50;;;;;;;1.47;78.64;100142.63;135611;1250;107564;-80
2023/12/28 03:51:29;;;;;;;19.30;10.10;;;;;;;1.46;78.78;100144.27;135462;1249;106594;-79
2023/12/28 03:54:34;;;;;;;22.50;10.00;;;;;;;1.45;78.62;100145.02;135685;1250;106753;-80
2023/12/28 03:57:42;;;;;;;22.40;11.70;;;;;;;1.48;78.78;100134.66;135680;1251;105994;-81
2023/12/28 04:00:47;;;;;;;25.70;13.20;;;;;;;1.54;78.79;100130.42;135490;1250;106654;-79
2023/12/28 04:03:53;;;;;;;25.10;12.50;;;;;;;1.60;78.64;100119.21;135694;1250;108678;-79
2023/12/28 04:06:58;;;;;;;29.90;15.60;;;;;;;1.62;78.87;100107.30;135677;1250;107181;-79
2023/12/28 04:10:05;;;;;;;28.90;14.20;;;;;;;1.65;78.60;100101.15;135694;1250;106489;-79
2023/12/28 04:13:10;;;;;;;28.10;13.80;;;;;;;1.65;78.73;100100.27;135667;1250;108567;-79
2023/12/28 04:16:16;;;;;;;22.00;10.70;;;;;;;1.65;78.84;100095.56;135690;1250;108622;-79
2023/12/28 04:19:22;;;;;;;21.20;11.50;;;;;;;1.64;78.79;100099.30;135497;1249;107623;-79
2023/12/28 04:22:27;;;;;;;27.20;14.80;;;;;;;1.61;78.78;100100.04;135681;1251;107630;-79
2023/12/28 04:25:33;;;;;;;26.00;12.70;;;;;;;1.58;78.87;100095.80;135640;1250;108483;-80
2023/12/28 04:28:39;;;;;;;29.00;14.40;;;;;;;1.55;78.94;100094.93;135523;1250;106611;-79
2023/12/28 04:31:45;;;;;;;28.20;14.10;;;;;;;1.51;79.15;100076.98;135504;1249;108597;-79
2023/12/28 04:34:52;;;;;;;32.90;15.90;;;;;;;1.51;79.19;100069.82;135476;1250;108576;-79
2023/12/28 04:37:57;;;;;;;33.30;16.30;;;;;;;1.53;79.15;100063.38;135584;1250;108463;-80
2023/12/28 04:41:03;;;;;;;18.80;9.50;;;;;;;1.58;79.35;100064.27;135635;1249;107402;-80
2023/12/28 04:44:09;;;;;;;23.80;12.20;;;;;;;1.64;79.21;100063.22;135495;1249;107810;-80
2023/12/28 04:47:15;;;;;;;26.30;12.80;;;;;;;1.68;79.36;100056.26;135498;1250;107650;-80
2023/12/28 04:50:20;;;;;;;22.80;11.70;;;;;;;1.70;79.44;100045.94;135529;1251;106656;-80
2023/12/28 04:53:26;;;;;;;23.70;11.80;;;;;;;1.70;79.51;100034.72;135672;1250;106340;-80
2023/12/28 04:56:32;;;;;;;23.40;11.90;;;;;;;1.70;79.59;100019.84;135564;1251;106675;-80
2023/12/28 04:59:40;;;;;;;22.10;11.90;;;;;;;1.67;79.38;100005.97;135694;1250;107094;-80
2023/12/28 05:02:45;;;;;;;22.50;12.40;;;;;;;1.65;79.40;100006.29;135683;1249;108696;-80
2023/12/28 05:05:51;;;;;;;22.50;11.00;;;;;;;1.63;79.50;100010.30;135543;1249;108022;-80
2023/12/28 05:08:57;;;;;;;23.70;10.50;;;;;;;1.61;79.38;100016.03;135689;1251;108500;-79
2023/12/28 05:12:02;;;;;;;24.60;11.40;;;;;;;1.57;79.55;100009.98;135590;1249;107159;-80
2023/12/28 05:15:09;;;;;;;29.00;13.50;;;;;;;1.55;79.61;100009.60;135554;1250;107777;-79
2023/12/28 05:18:15;;;;;;;22.10;10.00;;;;;;;1.55;79.72;100002.05;135637;1248;107968;-80
2023/12/28 05:21:21;;;;;;;21.80;10.40;;;;;;;1.61;79.88;99988.70;135671;1250;107676;-80
2023/12/28 05:24:26;;;;;;;22.60;11.80;;;;;;;1.68;79.76;99976.98;135669;1249;107760;-79
2023/12/28 05:27:32;;;;;;;30.90;13.70;;;;;;;1.75;79.94;99974.42;135668;1249;106764;-79
2023/12/28 05:30:37;;;;;;;24.20;11.50;;;;;;;1.80;79.93;99972.01;135693;1249;106655;-79
2023/12/28 05:33:43;;;;;;;32.70;14.90;;;;;;;1.82;79.86;99970.23;135720;1249;106609;-80
2023/12/28 05:36:48;;;;;;;52.40;20.10;;;;;;;1.83;79.95;99967.76;135696;1249;107210;-80
2023/12/28 05:40:12;;;;;;;25.90;12.80;;;;;;;1.82;79.88;99961.16;135717;1249;107524;-81
2023/12/28 05:43:17;;;;;;;23.40;11.50;;;;;;;1.81;79.90;99955.80;135742;1249;106861;-80
2023/12/28 05:46:23;;;;;;;23.60;12.00;;;;;;;1.79;80.11;99960.10;135676;1249;106250;-79
2023/12/28 05:49:30;;;;;;;30.70;15.70;;;;;;;1.76;80.15;99955.21;135554;1250;107795;-80
2023/12/28 05:52:36;;;;;;;24.50;11.10;;;;;;;1.73;80.48;99952.42;135738;1250;108598;-80
2023/12/28 05:55:41;;;;;;;20.00;10.30;;;;;;;1.74;80.51;99955.88;135703;1249;106292;-80
2023/12/28 05:58:47;;;;;;;21.30;12.20;;;;;;;1.78;80.41;99958.26;135721;1249;108643;-80
2023/12/28 06:01:52;;;;;;;23.10;11.50;;;;;;;1.82;80.65;99963.09;135728;1250;106996;-80
2023/12/28 06:04:59;;;;;;;23.10;12.10;;;;;;;1.85;80.42;99964.23;135751;1249;106718;-82
2023/12/28 06:08:05;;;;;;;22.90;12.50;;;;;;;1.87;80.49;99956.08;135684;1249;106443;-80
2023/12/28 06:11:11;;;;;;;27.30;13.70;;;;;;;1.87;80.57;99936.27;135653;1250;107446;-80
2023/12/28 06:14:16;;;;;;;21.60;12.30;;;;;;;1.85;80.43;99945.48;135581;1249;108778;-80
2023/12/28 06:17:22;;;;;;;22.10;11.80;;;;;;;1.84;80.54;99955.55;135567;1250;107670;-80
2023/12/28 06:20:28;;;;;;;26.30;12.60;;;;;;;1.83;80.72;99952.66;135580;1250;108363;-80
2023/12/28 06:23:33;;;;;;;23.10;12.30;;;;;;;1.82;80.65;99949.39;135578;1250;107624;-80
2023/12/28 06:26:42;;;;;;;21.80;11.20;;;;;;;1.83;80.79;99948.95;135609;1249;107757;-80
2023/12/28 06:29:48;;;;;;;19.10;10.50;;;;;;;1.88;80.89;99948.61;135619;1250;108728;-80
2023/12/28 06:32:54;;;;;;;22.70;12.10;;;;;;;1.97;80.70;99952.79;135596;1250;107580;-80
2023/12/28 06:36:05;;;;;;;20.60;11.50;;;;;;;2.05;80.86;99946.27;135629;1250;109440;-80
2023/12/28 06:39:10;;;;;;;21.20;11.20;;;;;;;2.11;80.95;99937.38;135641;1250;108422;-80
2023/12/28 06:42:16;;;;;;;23.90;12.30;;;;;;;2.15;80.88;99935.85;135573;1250;105511;-80
2023/12/28 06:45:26;;;;;;;23.70;11.90;;;;;;;2.15;80.94;99935.69;135634;1250;107623;-80
2023/12/28 06:48:32;;;;;;;22.10;12.20;;;;;;;2.13;80.85;99934.47;135580;1250;107698;-80
2023/12/28 06:51:38;;;;;;;22.30;12.20;;;;;;;2.11;81.15;99943.02;135584;1250;106416;-80
2023/12/28 06:54:43;;;;;;;23.40;11.60;;;;;;;2.10;81.06;99925.77;135651;1250;106908;-80
2023/12/28 06:57:49;;;;;;;22.80;12.50;;;;;;;2.08;81.18;99930.09;135608;1249;106491;-80
2023/12/28 07:00:57;;;;;;;22.90;12.10;;;;;;;2.08;81.16;99937.05;135569;1249;107551;-80
2023/12/28 07:04:02;;;;;;;137.50;52.80;;;;;;;2.12;81.51;99938.08;135632;1249;107703;-80
2023/12/28 07:07:08;;;;;;;59.50;24.00;;;;;;;2.19;81.60;99935.61;135588;1250;107546;-80
2023/12/28 07:10:14;;;;;;;28.40;14.50;;;;;;;2.30;81.81;99939.40;135751;1248;107390;-80
2023/12/28 07:13:19;;;;;;;30.40;15.10;;;;;;;2.42;81.96;99939.98;135759;1248;108324;-80
2023/12/28 07:16:26;;;;;;;28.70;15.60;;;;;;;2.51;82.17;99930.70;135574;1250;106708;-80
2023/12/28 07:19:31;;;;;;;38.30;21.40;;;;;;;2.58;82.12;99926.68;135576;1248;106840;-80
2023/12/28 07:22:37;;;;;;;24.10;13.00;;;;;;;2.63;82.06;99917.38;135727;1248;108759;-79
2023/12/28 07:25:43;;;;;;;23.50;13.30;;;;;;;2.68;82.05;99912.14;135811;1248;107662;-80
2023/12/28 07:28:48;;;;;;;24.60;13.40;;;;;;;2.71;82.17;99907.17;135847;1247;107651;-80
2023/12/28 07:31:55;;;;;;;23.90;13.40;;;;;;;2.73;82.23;99908.95;135650;1248;108742;-80
2023/12/28 07:35:01;;;;;;;22.30;12.80;;;;;;;2.77;82.47;99912.34;135719;1252;107440;-81
2023/12/28 07:38:07;;;;;;;23.80;13.00;;;;;;;2.85;82.44;99908.11;135658;1248;108932;-79
2023/12/28 07:41:12;;;;;;;22.40;12.00;;;;;;;2.97;82.72;99919.89;135734;1247;106711;-80
2023/12/28 07:44:18;;;;;;;22.40;12.80;;;;;;;3.12;82.61;99920.88;135724;1250;108810;-80
2023/12/28 07:47:24;;;;;;;24.80;12.70;;;;;;;3.27;82.53;99926.80;135606;1249;108510;-80
2023/12/28 07:50:29;;;;;;;22.50;12.00;;;;;;;3.39;82.25;99938.39;135717;1249;107165;-80
2023/12/28 07:53:35;;;;;;;19.50;10.80;;;;;;;3.50;82.24;99947.90;135729;1250;107686;-80
2023/12/28 07:56:41;;;;;;;20.70;11.70;;;;;;;3.60;82.43;99951.61;135738;1248;108520;-80
2023/12/28 07:59:46;;;;;;;20.20;11.40;;;;;;;3.69;82.53;99953.21;135711;1250;108568;-80
2023/12/28 08:02:52;;;;;;;21.50;12.10;;;;;;;3.76;82.30;99951.44;135698;1248;108555;-80
2023/12/28 08:05:58;;;;;;;21.50;11.20;;;;;;;3.84;82.54;99945.17;135485;1249;106938;-80
2023/12/28 08:09:03;;;;;;;20.50;10.80;;;;;;;3.93;82.44;99940.27;135571;1247;108143;-80
2023/12/28 08:12:09;;;;;;;20.60;11.40;;;;;;;4.06;82.49;99930.67;135763;1249;108742;-81
2023/12/28 08:15:15;;;;;;;17.80;11.00;;;;;;;4.20;82.39;99934.45;135718;1250;108687;-80
2023/12/28 08:18:20;;;;;;;19.80;10.90;;;;;;;4.36;82.24;99934.86;135772;1250;106759;-81
2023/12/28 08:21:26;;;;;;;18.70;11.10;;;;;;;4.50;81.97;99938.27;135707;1250;108601;-80
2023/12/28 08:24:32;;;;;;;17.50;10.80;;;;;;;4.64;82.24;99940.33;135756;1250;106488;-80
2023/12/28 08:27:37;;;;;;;18.40;11.40;;;;;;;4.78;82.16;99938.22;135685;1249;108631;-80
2023/12/28 08:30:43;;;;;;;18.00;10.70;;;;;;;4.88;82.08;99943.73;135747;1249;107516;-80
2023/12/28 08:33:48;;;;;;;40.10;19.70;;;;;;;4.95;82.08;99948.08;135624;1250;106889;-80
2023/12/28 08:36:54;;;;;;;41.40;19.80;;;;;;;4.99;81.82;99953.93;135729;1250;106857;-80
2023/12/28 08:39:59;;;;;;;29.40;13.70;;;;;;;5.02;81.82;99953.02;135734;1249;108599;-80
2023/12/28 08:43:05;;;;;;;76.60;29.60;;;;;;;5.07;81.75;99946.36;135688;1249;107717;-80
2023/12/28 08:46:11;;;;;;;229.00;72.60;;;;;;;5.16;81.73;99941.95;135744;1250;107784;-80
2023/12/28 08:49:17;;;;;;;103.60;37.30;;;;;;;5.27;81.78;99937.55;135702;1249;108744;-80
2023/12/28 08:52:22;;;;;;;66.60;25.50;;;;;;;5.36;81.47;99944.37;135646;1249;107678;-80
2023/12/28 08:55:28;;;;;;;304.10;93.00;;;;;;;5.43;81.69;99957.61;135718;1250;108487;-80
2023/12/28 08:58:33;;;;;;;145.60;49.50;;;;;;;5.47;81.47;99951.08;135724;1249;107617;-80
2023/12/28 09:01:39;;;;;;;130.80;43.10;;;;;;;5.50;81.53;99950.09;135741;1250;108590;-80
2023/12/28 09:04:45;;;;;;;105.20;34.70;;;;;;;5.50;81.25;99950.77;135750;1249;108346;-80
2023/12/28 09:07:50;;;;;;;216.90;70.10;;;;;;;5.52;81.21;99953.12;135695;1249;106204;-80
2023/12/28 09:10:56;;;;;;;111.00;36.00;;;;;;;5.54;81.33;99957.05;135785;1250;106721;-80
2023/12/28 09:14:02;;;;;;;353.20;97.20;;;;;;;5.55;81.26;99956.91;135737;1249;106347;-79
2023/12/28 09:17:07;;;;;;;63.70;22.60;;;;;;;5.58;81.19;99953.53;135769;1249;108531;-79
2023/12/28 09:20:13;;;;;;;45.20;18.60;;;;;;;5.64;81.29;99951.25;135744;1250;108716;-81
2023/12/28 09:23:19;;;;;;;166.40;53.20;;;;;;;5.73;81.27;99961.06;135723;1249;106531;-83
2023/12/28 09:26:25;;;;;;;433.60;127.60;;;;;;;5.83;81.15;99964.64;135745;1250;106713;-87
2023/12/28 09:29:30;;;;;;;600.10;211.40;;;;;;;5.90;80.87;99965.79;135744;1249;107466;-85
2023/12/28 09:32:36;;;;;;;525.20;173.50;;;;;;;5.96;81.25;99965.67;135666;1249;107661;-86
2023/12/28 09:35:42;;;;;;;447.00;141.80;;;;;;;5.99;81.10;99963.19;135712;1250;108618;-86
2023/12/28 09:38:47;;;;;;;391.20;135.80;;;;;;;6.00;80.94;99972.42;135765;1249;108588;-85
2023/12/28 09:42:05;;;;;;;100.30;40.10;;;;;;;6.02;80.96;99960.59;135763;1250;107600;-83
2023/12/28 09:45:12;;;;;;;41.00;19.80;;;;;;;6.06;80.98;99950.84;135765;1249;107334;-83
2023/12/28 09:48:18;;;;;;;26.30;14.50;;;;;;;6.10;80.83;99943.80;135706;1249;107626;-84
2023/12/28 09:51:25;;;;;;;27.10;15.80;;;;;;;6.15;80.90;99956.69;135740;1249;107582;-84
2023/12/28 09:54:30;;;;;;;18.10;10.60;;;;;;;6.17;80.90;99957.87;135803;1249;106891;-84
2023/12/28 09:57:36;;;;;;;16.20;9.30;;;;;;;6.22;80.82;99959.57;135761;1249;106904;-84
2023/12/28 10:00:44;;;;;;;18.90;11.20;;;;;;;6.29;80.86;99970.59;135776;1249;108330;-85
2023/12/28 10:03:50;;;;;;;18.10;11.30;;;;;;;6.38;81.11;99969.16;135609;1250;108111;-84
2023/12/28 10:06:57;;;;;;;17.20;10.20;;;;;;;6.49;80.82;99964.51;135630;1250;108641;-83
2023/12/28 10:10:04;;;;;;;16.10;9.70;;;;;;;6.60;80.82;99965.85;135508;1250;106353;-84
2023/12/28 10:13:10;;;;;;;14.10;8.20;;;;;;;6.68;80.77;99963.70;135540;1250;107597;-84
2023/12/28 10:16:18;;;;;;;13.30;8.30;;;;;;;6.74;80.52;99960.14;135577;1250;105329;-84
2023/12/28 10:19:25;;;;;;;11.50;7.70;;;;;;;6.81;80.62;99957.23;135569;1250;106608;-84
2023/12/28 10:22:31;;;;;;;12.50;7.50;;;;;;;6.86;80.49;99945.10;135491;1250;108615;-84
2023/12/28 10:25:37;;;;;;;161.10;73.50;;;;;;;6.91;80.39;99947.21;135545;1249;106311;-84
2023/12/28 10:28:44;;;;;;;114.60;44.50;;;;;;;6.93;80.24;99945.42;135547;1250;108330;-84
2023/12/28 10:31:51;;;;;;;57.20;23.40;;;;;;;6.94;80.15;99940.77;135555;1250;106950;-84
2023/12/28 10:34:57;;;;;;;116.20;43.10;;;;;;;6.94;79.89;99941.03;135410;1250;188038;-84
2023/12/28 10:38:03;;;;;;;84.20;30.60;;;;;;;6.94;79.79;99934.73;135541;1250;108740;-84
2023/12/28 10:41:09;;;;;;;42.60;16.50;;;;;;;6.93;80.00;99928.59;135556;1249;108412;-84
2023/12/28 10:44:20;;;;;;;721.70;261.80;;;;;;;6.94;79.80;99928.14;135542;1250;107885;-84
2023/12/28 10:47:28;;;;;;;626.30;231.60;;;;;;;6.98;79.65;99933.95;135541;1250;108383;-84
2023/12/28 10:50:41;;;;;;;232.40;73.20;;;;;;;7.06;79.56;99929.77;135514;1250;107067;-84
2023/12/28 10:53:49;;;;;;;;;;;;;;;7.15;79.64;99933.07;135564;1249;107500;-84
2023/12/28 10:57:00;;;;;;;508.40;190.90;;;;;;;7.20;79.57;99929.86;135516;1250;108586;-85
2023/12/28 11:00:11;;;;;;;470.50;167.20;;;;;;;7.24;79.19;99937.88;135537;1250;109360;-84
2023/12/28 11:03:24;;;;;;;278.80;88.90;;;;;;;7.26;79.33;99938.74;135547;1250;107599;-84
2023/12/28 11:06:31;;;;;;;329.90;109.20;;;;;;;7.27;79.26;99942.99;135532;1250;107704;-84
2023/12/28 11:09:40;;;;;;;150.60;54.10;;;;;;;7.29;79.15;99948.36;135543;1250;108729;-84
2023/12/28 11:12:47;;;;;;;183.30;88.40;;;;;;;7.29;79.19;99945.70;135543;1250;108610;-84
2023/12/28 11:15:53;;;;;;;64.30;29.70;;;;;;;7.29;78.86;99939.02;135523;1249;107852;-84
2023/12/28 11:19:00;;;;;;;133.60;73.20;;;;;;;7.29;79.05;99932.80;135569;1250;107609;-84
2023/12/28 11:22:06;;;;;;;34.10;17.00;;;;;;;7.32;79.08;99929.02;135539;1250;108629;-84
2023/12/28 11:25:18;;;;;;;31.50;18.30;;;;;;;7.34;78.95;99919.60;135537;1250;108391;-84
2023/12/28 11:28:25;;;;;;;41.50;31.60;;;;;;;7.35;78.60;99926.96;135513;1250;107785;-84
2023/12/28 11:31:35;;;;;;;13.30;9.40;;;;;;;7.36;78.84;99933.58;135531;1250;107944;-84
2023/12/28 11:34:40;;;;;;;12.50;8.30;;;;;;;7.39;78.97;99935.77;135516;1250;108836;-83
2023/12/28 11:38:31;;;;;;;51.50;34.40;;;;;;;7.45;78.82;99929.04;135442;1246;107178;31
2023/12/28 11:41:38;;;;;;;21.10;13.60;;;;;;;7.55;78.88;99931.16;135072;1251;107533;-83
2023/12/28 11:44:44;;;;;;;18.50;12.00;;;;;;;7.62;78.77;99924.10;135227;1250;108714;-83
2023/12/28 11:48:01;;;;;;;17.70;12.10;;;;;;;7.69;78.75;99922.58;135197;1251;108615;-81
2023/12/28 11:51:07;;;;;;;28.60;21.20;;;;;;;7.74;78.46;99919.98;135260;1251;107843;-81
2023/12/28 11:54:12;;;;;;;17.90;12.70;;;;;;;7.78;78.59;99918.90;135225;1251;106601;-81
2023/12/28 11:57:18;;;;;;;18.50;13.30;;;;;;;7.80;78.52;99921.53;135351;1251;107757;-80
2023/12/28 12:00:25;;;;;;;13.90;9.20;;;;;;;7.81;78.42;99918.40;135340;1251;108832;-81
2023/12/28 12:03:31;;;;;;;14.70;9.60;;;;;;;7.83;78.41;99915.06;135320;1251;108721;-82
2023/12/28 12:06:37;;;;;;;15.20;10.40;;;;;;;7.85;78.41;99916.98;135326;1251;107277;-80
2023/12/28 12:09:42;;;;;;;10.90;7.50;;;;;;;7.86;78.39;99908.58;135314;1252;106556;-81
2023/12/28 12:12:48;;;;;;;9.40;6.40;;;;;;;7.90;78.27;99908.10;135232;1252;107066;-80
2023/12/28 12:15:54;;;;;;;10.70;6.70;;;;;;;7.92;78.36;99906.88;135280;1253;108656;-82
2023/12/28 12:19:00;;;;;;;15.40;10.70;;;;;;;7.93;78.42;99918.03;135279;1252;107578;-82
2023/12/28 12:22:06;;;;;;;14.30;8.90;;;;;;;7.95;78.37;99910.78;135238;1252;105937;-83
2023/12/28 12:25:11;;;;;;;11.10;6.20;;;;;;;8.01;78.47;99911.83;135250;1252;108655;-82
2023/12/28 12:28:17;;;;;;;10.80;6.80;;;;;;;8.09;78.33;99910.34;135343;1252;106589;-81
2023/12/28 12:31:23;;;;;;;12.20;6.90;;;;;;;8.17;78.36;99905.70;135249;1252;107663;-82
2023/12/28 12:34:48;;;;;;;11.60;6.90;;;;;;;8.23;78.42;99904.25;135285;1252;108722;-82
2023/12/28 12:37:54;;;;;;;13.10;8.30;;;;;;;8.26;78.21;99906.40;135260;1251;108714;-83
2023/12/28 12:40:59;;;;;;;11.60;7.30;;;;;;;8.29;78.20;99902.80;135280;1252;108273;-83
2023/12/28 12:44:09;;;;;;;11.10;7.10;;;;;;;8.30;78.32;99896.30;135235;1251;107471;-82
2023/12/28 12:47:16;;;;;;;11.60;7.40;;;;;;;8.31;78.18;99898.55;135219;1252;107477;-82
2023/12/28 12:50:22;;;;;;;28.00;20.20;;;;;;;8.31;78.30;99898.19;135258;1253;108586;-82
2023/12/28 12:53:33;;;;;;;41.80;22.60;;;;;;;8.30;78.18;99893.80;135266;1252;107989;-81
2023/12/28 12:56:39;;;;;;;19.80;11.60;;;;;;;8.31;78.30;99892.71;135325;1253;108705;-82
2023/12/28 12:59:45;;;;;;;13.70;7.60;;;;;;;8.31;77.97;99894.84;135265;1252;108663;-82
2023/12/28 13:02:53;;;;;;;13.80;7.10;;;;;;;8.29;78.15;99896.75;135276;1252;108633;-82
2023/12/28 13:05:58;;;;;;;10.70;6.10;;;;;;;8.27;78.09;99893.90;135223;1253;106548;-90
2023/12/28 13:09:06;;;;;;;10.10;6.00;;;;;;;8.26;78.04;99895.20;135270;1253;107504;-85
2023/12/28 13:12:12;;;;;;;12.70;6.70;;;;;;;8.30;78.12;99896.00;135260;1252;107516;-84
2023/12/28 13:15:18;;;;;;;10.70;6.20;;;;;;;8.34;77.90;99898.56;135275;1253;106695;-83
2023/12/28 13:18:24;;;;;;;9.00;5.70;;;;;;;8.37;77.78;99895.41;135302;1253;107048;-83
2023/12/28 13:21:30;;;;;;;11.60;6.40;;;;;;;8.41;77.67;99898.48;135294;1252;108364;-83
2023/12/28 13:24:35;;;;;;;15.50;9.40;;;;;;;8.40;77.65;99898.51;135352;1253;108834;-83
2023/12/28 13:27:41;;;;;;;15.90;7.30;;;;;;;8.40;77.70;99904.39;135262;1252;106652;-83
2023/12/28 13:30:49;;;;;;;13.90;7.60;;;;;;;8.38;77.76;99907.23;135321;1253;106539;-82
2023/12/28 13:33:54;;;;;;;53.30;21.90;;;;;;;8.36;77.55;99908.16;135267;1252;107897;-88
2023/12/28 13:37:02;;;;;;;46.40;20.70;;;;;;;8.33;77.56;99909.83;135253;1252;107365;-88
2023/12/28 13:40:10;;;;;;;186.20;69.60;;;;;;;8.31;77.49;99902.65;135316;1253;106534;-83
2023/12/28 13:43:16;;;;;;;121.00;45.00;;;;;;;8.27;77.50;99904.48;135317;1253;106674;-84
2023/12/28 13:46:22;;;;;;;306.10;108.10;;;;;;;8.24;77.34;99906.52;135267;1253;108451;-82
2023/12/28 13:49:28;;;;;;;345.50;117.60;;;;;;;8.22;77.26;99914.23;135320;1253;108748;-86
2023/12/28 13:52:33;;;;;;;397.00;142.90;;;;;;;8.19;77.20;99918.03;135244;1253;107674;-88
2023/12/28 13:55:39;;;;;;;391.40;138.30;;;;;;;8.17;77.31;99919.12;135339;1252;107809;-88
2023/12/28 13:58:45;;;;;;;336.70;103.20;;;;;;;8.14;77.16;99917.27;135359;1253;107680;-88
2023/12/28 14:01:50;;;;;;;836.70;331.80;;;;;;;8.13;77.23;99920.23;135305;1253;108582;-89
2023/12/28 14:04:56;;;;;;;912.40;365.80;;;;;;;8.13;76.97;99917.23;135396;1251;107006;-88